sensor_id;sensor_type;location;lat;lon;timestamp;P1;durP1;ratioP1;P2;durP2;ratioP2
48667;SDS011;34453;52.198;5.004;2023-05-02T00:01:35;17.20;;;12.98;;
48667;SDS011;34453;52.198;5.004;2023-05-02T00:04:01;20.88;;;13.50;;
48667;SDS011;34453;52.198;5.004;2023-05-02T00:06:27;24.88;;;14.10;;
48667;SDS011;34453;52.198;5.004;2023-05-02T00:08:55;15.93;;;9.45;;
48667;SDS011;34453;52.198;5.004;2023-05-02T00:11:21;18.30;;;8.90;;
48667;SDS011;34453;52.198;5.004;2023-05-02T00:13:48;24.23;;;9.85;;
48667;SDS011;34453;52.198;5.004;2023-05-02T00:16:14;10.75;;;7.43;;
48667;SDS011;34453;52.198;5.004;2023-05-02T00:18:39;8.50;;;6.15;;
48667;SDS011;34453;52.198;5.004;2023-05-02T00:21:05;13.77;;;6.90;;
48667;SDS011;34453;52.198;5.004;2023-05-02T00:23:31;14.40;;;6.53;;
48667;SDS011;34453;52.198;5.004;2023-05-02T00:25:56;10.90;;;6.78;;
48667;SDS011;34453;52.198;5.004;2023-05-02T00:28:22;10.48;;;6.18;;
48667;SDS011;34453;52.198;5.004;2023-05-02T00:30:47;10.63;;;5.93;;
48667;SDS011;34453;52.198;5.004;2023-05-02T00:33:13;11.52;;;6.60;;
48667;SDS011;34453;52.198;5.004;2023-05-02T00:35:39;10.10;;;5.80;;
48667;SDS011;34453;52.198;5.004;2023-05-02T00:38:05;10.68;;;5.93;;
48667;SDS011;34453;52.198;5.004;2023-05-02T00:40:40;15.57;;;5.65;;
48667;SDS011;34453;52.198;5.004;2023-05-02T00:43:10;12.07;;;5.70;;
48667;SDS011;34453;52.198;5.004;2023-05-02T00:45:36;13.77;;;6.60;;
48667;SDS011;34453;52.198;5.004;2023-05-02T00:48:05;13.38;;;5.20;;
48667;SDS011;34453;52.198;5.004;2023-05-02T00:50:31;11.27;;;4.40;;
48667;SDS011;34453;52.198;5.004;2023-05-02T00:52:59;10.82;;;4.15;;
48667;SDS011;34453;52.198;5.004;2023-05-02T00:55:26;7.22;;;4.65;;
48667;SDS011;34453;52.198;5.004;2023-05-02T00:57:51;10.80;;;4.13;;
48667;SDS011;34453;52.198;5.004;2023-05-02T01:00:17;10.05;;;4.40;;
48667;SDS011;34453;52.198;5.004;2023-05-02T01:02:54;14.95;;;4.57;;
48667;SDS011;34453;52.198;5.004;2023-05-02T01:05:35;8.30;;;4.88;;
48667;SDS011;34453;52.198;5.004;2023-05-02T01:08:17;12.63;;;4.55;;
48667;SDS011;34453;52.198;5.004;2023-05-02T01:11:25;12.43;;;4.30;;
48667;SDS011;34453;52.198;5.004;2023-05-02T01:13:46;10.38;;;3.72;;
48667;SDS011;34453;52.198;5.004;2023-05-02T01:16:13;7.43;;;3.22;;
48667;SDS011;34453;52.198;5.004;2023-05-02T01:18:41;6.07;;;3.13;;
48667;SDS011;34453;52.198;5.004;2023-05-02T01:21:09;6.85;;;2.70;;
48667;SDS011;34453;52.198;5.004;2023-05-02T01:23:48;7.20;;;2.13;;
48667;SDS011;34453;52.198;5.004;2023-05-02T01:29:16;7.28;;;2.45;;
48667;SDS011;34453;52.198;5.004;2023-05-02T01:31:45;14.50;;;3.03;;
48667;SDS011;34453;52.198;5.004;2023-05-02T01:34:13;14.40;;;3.00;;
48667;SDS011;34453;52.198;5.004;2023-05-02T01:36:42;12.00;;;3.63;;
48667;SDS011;34453;52.198;5.004;2023-05-02T01:39:12;6.18;;;2.85;;
48667;SDS011;34453;52.198;5.004;2023-05-02T01:41:42;16.23;;;2.88;;
48667;SDS011;34453;52.198;5.004;2023-05-02T01:44:09;9.32;;;3.50;;
48667;SDS011;34453;52.198;5.004;2023-05-02T01:46:36;9.75;;;2.33;;
48667;SDS011;34453;52.198;5.004;2023-05-02T01:49:04;12.35;;;2.28;;
48667;SDS011;34453;52.198;5.004;2023-05-02T01:51:32;8.63;;;2.38;;
48667;SDS011;34453;52.198;5.004;2023-05-02T01:54:02;5.00;;;1.90;;
48667;SDS011;34453;52.198;5.004;2023-05-02T01:56:30;3.55;;;2.15;;
48667;SDS011;34453;52.198;5.004;2023-05-02T01:58:58;6.10;;;1.58;;
48667;SDS011;34453;52.198;5.004;2023-05-02T02:01:24;11.98;;;1.60;;
48667;SDS011;34453;52.198;5.004;2023-05-02T02:03:55;7.75;;;1.20;;
48667;SDS011;34453;52.198;5.004;2023-05-02T02:06:22;4.00;;;1.90;;
48667;SDS011;34453;52.198;5.004;2023-05-02T02:08:48;8.32;;;2.30;;
48667;SDS011;34453;52.198;5.004;2023-05-02T02:11:16;6.32;;;1.70;;
48667;SDS011;34453;52.198;5.004;2023-05-02T02:13:48;4.03;;;1.10;;
48667;SDS011;34453;52.198;5.004;2023-05-02T02:16:24;12.77;;;1.70;;
48667;SDS011;34453;52.198;5.004;2023-05-02T02:18:54;2.40;;;1.35;;
48667;SDS011;34453;52.198;5.004;2023-05-02T02:21:21;5.18;;;1.30;;
48667;SDS011;34453;52.198;5.004;2023-05-02T02:23:50;1.75;;;1.23;;
48667;SDS011;34453;52.198;5.004;2023-05-02T02:26:20;6.95;;;1.63;;
48667;SDS011;34453;52.198;5.004;2023-05-02T02:28:46;5.57;;;1.50;;
48667;SDS011;34453;52.198;5.004;2023-05-02T02:31:12;4.30;;;1.50;;
48667;SDS011;34453;52.198;5.004;2023-05-02T02:33:37;6.13;;;1.30;;
48667;SDS011;34453;52.198;5.004;2023-05-02T02:38:46;6.70;;;1.45;;
48667;SDS011;34453;52.198;5.004;2023-05-02T02:41:19;4.82;;;1.52;;
48667;SDS011;34453;52.198;5.004;2023-05-02T02:43:59;3.05;;;1.92;;
48667;SDS011;34453;52.198;5.004;2023-05-02T02:51:47;12.43;;;1.88;;
48667;SDS011;34453;52.198;5.004;2023-05-02T02:54:21;4.07;;;1.20;;
48667;SDS011;34453;52.198;5.004;2023-05-02T02:57:06;3.63;;;1.00;;
48667;SDS011;34453;52.198;5.004;2023-05-02T02:59:46;5.70;;;1.30;;
48667;SDS011;34453;52.198;5.004;2023-05-02T03:02:17;4.28;;;1.38;;
48667;SDS011;34453;52.198;5.004;2023-05-02T03:04:46;7.50;;;1.58;;
48667;SDS011;34453;52.198;5.004;2023-05-02T03:07:15;2.95;;;1.80;;
48667;SDS011;34453;52.198;5.004;2023-05-02T03:09:44;3.50;;;1.45;;
48667;SDS011;34453;52.198;5.004;2023-05-02T03:12:11;5.53;;;1.30;;
48667;SDS011;34453;52.198;5.004;2023-05-02T03:14:36;7.28;;;1.40;;
48667;SDS011;34453;52.198;5.004;2023-05-02T03:17:02;4.80;;;1.58;;
48667;SDS011;34453;52.198;5.004;2023-05-02T03:19:29;2.63;;;1.02;;
48667;SDS011;34453;52.198;5.004;2023-05-02T03:21:55;2.60;;;1.38;;
48667;SDS011;34453;52.198;5.004;2023-05-02T03:24:21;4.53;;;1.58;;
48667;SDS011;34453;52.198;5.004;2023-05-02T03:26:46;5.97;;;1.42;;
48667;SDS011;34453;52.198;5.004;2023-05-02T03:29:12;5.35;;;1.42;;
48667;SDS011;34453;52.198;5.004;2023-05-02T03:31:38;4.93;;;1.17;;
48667;SDS011;34453;52.198;5.004;2023-05-02T03:34:04;8.80;;;1.35;;
48667;SDS011;34453;52.198;5.004;2023-05-02T03:36:29;6.07;;;2.08;;
48667;SDS011;34453;52.198;5.004;2023-05-02T03:38:55;8.95;;;1.70;;
48667;SDS011;34453;52.198;5.004;2023-05-02T03:41:20;2.28;;;1.05;;
48667;SDS011;34453;52.198;5.004;2023-05-02T03:43:46;2.92;;;1.52;;
48667;SDS011;34453;52.198;5.004;2023-05-02T03:46:12;4.80;;;2.08;;
48667;SDS011;34453;52.198;5.004;2023-05-02T03:48:37;6.38;;;1.40;;
48667;SDS011;34453;52.198;5.004;2023-05-02T03:51:03;4.57;;;1.27;;
48667;SDS011;34453;52.198;5.004;2023-05-02T03:53:31;2.65;;;1.00;;
48667;SDS011;34453;52.198;5.004;2023-05-02T03:55:57;1.88;;;0.80;;
48667;SDS011;34453;52.198;5.004;2023-05-02T03:58:22;5.93;;;1.80;;
48667;SDS011;34453;52.198;5.004;2023-05-02T04:00:49;3.60;;;1.65;;
48667;SDS011;34453;52.198;5.004;2023-05-02T04:03:14;2.72;;;1.23;;
48667;SDS011;34453;52.198;5.004;2023-05-02T04:05:40;5.60;;;1.67;;
48667;SDS011;34453;52.198;5.004;2023-05-02T04:08:05;6.25;;;1.30;;
48667;SDS011;34453;52.198;5.004;2023-05-02T04:10:31;7.50;;;1.40;;
48667;SDS011;34453;52.198;5.004;2023-05-02T04:12:56;3.67;;;1.60;;
48667;SDS011;34453;52.198;5.004;2023-05-02T04:15:22;6.20;;;1.90;;
48667;SDS011;34453;52.198;5.004;2023-05-02T04:17:47;6.40;;;1.73;;
48667;SDS011;34453;52.198;5.004;2023-05-02T04:20:12;7.50;;;1.90;;
48667;SDS011;34453;52.198;5.004;2023-05-02T04:22:39;6.18;;;2.30;;
48667;SDS011;34453;52.198;5.004;2023-05-02T04:25:05;10.93;;;1.80;;
48667;SDS011;34453;52.198;5.004;2023-05-02T04:27:31;8.10;;;2.00;;
48667;SDS011;34453;52.198;5.004;2023-05-02T04:29:57;10.30;;;2.53;;
48667;SDS011;34453;52.198;5.004;2023-05-02T04:32:22;10.40;;;2.38;;
48667;SDS011;34453;52.198;5.004;2023-05-02T04:34:48;5.60;;;1.95;;
48667;SDS011;34453;52.198;5.004;2023-05-02T04:37:13;7.25;;;2.45;;
48667;SDS011;34453;52.198;5.004;2023-05-02T04:39:39;12.00;;;3.28;;
48667;SDS011;34453;52.198;5.004;2023-05-02T04:42:04;15.05;;;3.17;;
48667;SDS011;34453;52.198;5.004;2023-05-02T04:44:30;10.98;;;2.88;;
48667;SDS011;34453;52.198;5.004;2023-05-02T04:46:55;10.02;;;2.75;;
48667;SDS011;34453;52.198;5.004;2023-05-02T04:49:20;12.48;;;2.42;;
48667;SDS011;34453;52.198;5.004;2023-05-02T04:51:46;11.20;;;3.17;;
48667;SDS011;34453;52.198;5.004;2023-05-02T04:54:11;19.20;;;3.65;;
48667;SDS011;34453;52.198;5.004;2023-05-02T04:56:37;13.10;;;2.47;;
48667;SDS011;34453;52.198;5.004;2023-05-02T04:59:02;11.35;;;2.88;;
48667;SDS011;34453;52.198;5.004;2023-05-02T05:01:28;14.73;;;3.45;;
48667;SDS011;34453;52.198;5.004;2023-05-02T05:03:54;10.85;;;3.53;;
48667;SDS011;34453;52.198;5.004;2023-05-02T05:06:20;7.82;;;2.53;;
48667;SDS011;34453;52.198;5.004;2023-05-02T05:08:46;27.20;;;3.42;;
48667;SDS011;34453;52.198;5.004;2023-05-02T05:11:11;11.27;;;2.67;;
48667;SDS011;34453;52.198;5.004;2023-05-02T05:13:37;16.58;;;3.25;;
48667;SDS011;34453;52.198;5.004;2023-05-02T05:16:02;10.18;;;2.25;;
48667;SDS011;34453;52.198;5.004;2023-05-02T05:18:28;13.18;;;2.85;;
48667;SDS011;34453;52.198;5.004;2023-05-02T05:20:54;12.98;;;3.30;;
48667;SDS011;34453;52.198;5.004;2023-05-02T05:23:19;9.82;;;2.25;;
48667;SDS011;34453;52.198;5.004;2023-05-02T05:25:45;21.40;;;3.10;;
48667;SDS011;34453;52.198;5.004;2023-05-02T05:28:10;14.18;;;2.92;;
48667;SDS011;34453;52.198;5.004;2023-05-02T05:30:36;11.85;;;3.50;;
48667;SDS011;34453;52.198;5.004;2023-05-02T05:33:02;12.05;;;2.53;;
48667;SDS011;34453;52.198;5.004;2023-05-02T05:35:27;11.82;;;2.72;;
48667;SDS011;34453;52.198;5.004;2023-05-02T05:37:52;9.75;;;2.80;;
48667;SDS011;34453;52.198;5.004;2023-05-02T05:40:18;6.63;;;2.38;;
48667;SDS011;34453;52.198;5.004;2023-05-02T05:42:45;15.57;;;3.25;;
48667;SDS011;34453;52.198;5.004;2023-05-02T05:45:10;7.35;;;2.25;;
48667;SDS011;34453;52.198;5.004;2023-05-02T05:47:36;6.40;;;2.30;;
48667;SDS011;34453;52.198;5.004;2023-05-02T05:50:01;13.07;;;2.35;;
48667;SDS011;34453;52.198;5.004;2023-05-02T05:52:27;13.98;;;2.65;;
48667;SDS011;34453;52.198;5.004;2023-05-02T05:54:53;14.23;;;2.05;;
48667;SDS011;34453;52.198;5.004;2023-05-02T05:57:21;6.18;;;2.28;;
48667;SDS011;34453;52.198;5.004;2023-05-02T05:59:47;12.32;;;2.83;;
48667;SDS011;34453;52.198;5.004;2023-05-02T06:02:13;7.60;;;2.55;;
48667;SDS011;34453;52.198;5.004;2023-05-02T06:04:39;6.55;;;1.80;;
48667;SDS011;34453;52.198;5.004;2023-05-02T06:07:04;6.28;;;1.58;;
48667;SDS011;34453;52.198;5.004;2023-05-02T06:09:30;3.88;;;1.85;;
48667;SDS011;34453;52.198;5.004;2023-05-02T06:11:55;6.53;;;1.63;;
48667;SDS011;34453;52.198;5.004;2023-05-02T06:14:21;11.82;;;2.38;;
48667;SDS011;34453;52.198;5.004;2023-05-02T06:16:46;3.33;;;2.03;;
48667;SDS011;34453;52.198;5.004;2023-05-02T06:19:11;10.90;;;1.73;;
48667;SDS011;34453;52.198;5.004;2023-05-02T06:21:37;7.32;;;1.92;;
48667;SDS011;34453;52.198;5.004;2023-05-02T06:24:03;2.72;;;1.70;;
48667;SDS011;34453;52.198;5.004;2023-05-02T06:26:29;5.25;;;1.77;;
48667;SDS011;34453;52.198;5.004;2023-05-02T06:28:54;21.27;;;2.33;;
48667;SDS011;34453;52.198;5.004;2023-05-02T06:31:20;6.28;;;2.10;;
48667;SDS011;34453;52.198;5.004;2023-05-02T06:33:46;7.53;;;1.60;;
48667;SDS011;34453;52.198;5.004;2023-05-02T06:36:11;7.20;;;1.88;;
48667;SDS011;34453;52.198;5.004;2023-05-02T06:38:37;7.05;;;1.67;;
48667;SDS011;34453;52.198;5.004;2023-05-02T06:41:02;4.70;;;1.85;;
48667;SDS011;34453;52.198;5.004;2023-05-02T06:43:27;5.75;;;2.00;;
48667;SDS011;34453;52.198;5.004;2023-05-02T06:45:53;6.97;;;2.53;;
48667;SDS011;34453;52.198;5.004;2023-05-02T06:48:20;8.05;;;2.80;;
48667;SDS011;34453;52.198;5.004;2023-05-02T06:50:46;10.70;;;1.70;;
48667;SDS011;34453;52.198;5.004;2023-05-02T06:53:12;5.75;;;1.83;;
48667;SDS011;34453;52.198;5.004;2023-05-02T06:55:38;4.68;;;1.58;;
48667;SDS011;34453;52.198;5.004;2023-05-02T06:58:03;3.83;;;1.45;;
48667;SDS011;34453;52.198;5.004;2023-05-02T07:00:29;8.48;;;2.13;;
48667;SDS011;34453;52.198;5.004;2023-05-02T07:02:55;4.78;;;1.73;;
48667;SDS011;34453;52.198;5.004;2023-05-02T07:05:20;5.57;;;2.17;;
48667;SDS011;34453;52.198;5.004;2023-05-02T07:07:46;4.40;;;1.70;;
48667;SDS011;34453;52.198;5.004;2023-05-02T07:10:11;9.63;;;2.13;;
48667;SDS011;34453;52.198;5.004;2023-05-02T07:12:37;11.57;;;1.80;;
48667;SDS011;34453;52.198;5.004;2023-05-02T07:15:06;1.52;;;1.33;;
48667;SDS011;34453;52.198;5.004;2023-05-02T07:17:32;5.53;;;1.92;;
48667;SDS011;34453;52.198;5.004;2023-05-02T07:19:57;2.67;;;1.40;;
48667;SDS011;34453;52.198;5.004;2023-05-02T07:22:23;6.38;;;1.90;;
48667;SDS011;34453;52.198;5.004;2023-05-02T07:24:55;7.45;;;1.55;;
48667;SDS011;34453;52.198;5.004;2023-05-02T07:27:25;7.63;;;1.55;;
48667;SDS011;34453;52.198;5.004;2023-05-02T07:29:51;2.58;;;1.48;;
48667;SDS011;34453;52.198;5.004;2023-05-02T07:32:16;4.68;;;1.15;;
48667;SDS011;34453;52.198;5.004;2023-05-02T07:34:42;6.20;;;1.75;;
48667;SDS011;34453;52.198;5.004;2023-05-02T07:37:08;7.22;;;1.27;;
48667;SDS011;34453;52.198;5.004;2023-05-02T07:39:33;6.45;;;1.73;;
48667;SDS011;34453;52.198;5.004;2023-05-02T07:41:58;5.50;;;1.40;;
48667;SDS011;34453;52.198;5.004;2023-05-02T07:44:25;8.18;;;1.42;;
48667;SDS011;34453;52.198;5.004;2023-05-02T07:46:51;4.88;;;2.00;;
48667;SDS011;34453;52.198;5.004;2023-05-02T07:49:17;7.82;;;1.52;;
48667;SDS011;34453;52.198;5.004;2023-05-02T07:51:43;9.20;;;1.52;;
48667;SDS011;34453;52.198;5.004;2023-05-02T07:54:16;12.50;;;1.50;;
48667;SDS011;34453;52.198;5.004;2023-05-02T07:56:42;5.25;;;1.70;;
48667;SDS011;34453;52.198;5.004;2023-05-02T07:59:08;8.88;;;1.65;;
48667;SDS011;34453;52.198;5.004;2023-05-02T08:01:33;9.25;;;1.45;;
48667;SDS011;34453;52.198;5.004;2023-05-02T08:03:59;8.88;;;1.60;;
48667;SDS011;34453;52.198;5.004;2023-05-02T08:06:24;7.47;;;1.25;;
48667;SDS011;34453;52.198;5.004;2023-05-02T08:08:50;3.65;;;1.50;;
48667;SDS011;34453;52.198;5.004;2023-05-02T08:11:15;4.57;;;1.45;;
48667;SDS011;34453;52.198;5.004;2023-05-02T08:13:40;7.32;;;1.30;;
48667;SDS011;34453;52.198;5.004;2023-05-02T08:16:06;4.05;;;1.30;;
48667;SDS011;34453;52.198;5.004;2023-05-02T08:18:32;5.60;;;1.58;;
48667;SDS011;34453;52.198;5.004;2023-05-02T08:20:58;6.68;;;1.67;;
48667;SDS011;34453;52.198;5.004;2023-05-02T08:23:23;5.03;;;1.23;;
48667;SDS011;34453;52.198;5.004;2023-05-02T08:25:49;1.77;;;1.20;;
48667;SDS011;34453;52.198;5.004;2023-05-02T08:28:14;4.53;;;1.02;;
48667;SDS011;34453;52.198;5.004;2023-05-02T08:30:40;4.28;;;1.13;;
48667;SDS011;34453;52.198;5.004;2023-05-02T08:33:05;4.60;;;1.13;;
48667;SDS011;34453;52.198;5.004;2023-05-02T08:35:31;3.30;;;1.23;;
48667;SDS011;34453;52.198;5.004;2023-05-02T08:37:56;1.73;;;1.40;;
48667;SDS011;34453;52.198;5.004;2023-05-02T08:40:22;10.40;;;1.42;;
48667;SDS011;34453;52.198;5.004;2023-05-02T08:42:47;2.92;;;1.73;;
48667;SDS011;34453;52.198;5.004;2023-05-02T08:45:13;4.78;;;1.60;;
48667;SDS011;34453;52.198;5.004;2023-05-02T08:47:42;2.75;;;1.40;;
48667;SDS011;34453;52.198;5.004;2023-05-02T08:50:09;6.55;;;1.50;;
48667;SDS011;34453;52.198;5.004;2023-05-02T08:52:36;2.72;;;1.00;;
48667;SDS011;34453;52.198;5.004;2023-05-02T08:55:03;2.05;;;1.20;;
48667;SDS011;34453;52.198;5.004;2023-05-02T08:57:30;4.25;;;1.20;;
48667;SDS011;34453;52.198;5.004;2023-05-02T08:59:57;6.72;;;1.20;;
48667;SDS011;34453;52.198;5.004;2023-05-02T09:05:10;3.17;;;1.23;;
48667;SDS011;34453;52.198;5.004;2023-05-02T09:07:46;4.13;;;1.27;;
48667;SDS011;34453;52.198;5.004;2023-05-02T09:10:15;3.55;;;1.63;;
48667;SDS011;34453;52.198;5.004;2023-05-02T09:12:40;1.42;;;1.33;;
48667;SDS011;34453;52.198;5.004;2023-05-02T09:15:09;5.72;;;1.75;;
48667;SDS011;34453;52.198;5.004;2023-05-02T09:17:42;7.40;;;1.13;;
48667;SDS011;34453;52.198;5.004;2023-05-02T09:20:09;3.50;;;1.63;;
48667;SDS011;34453;52.198;5.004;2023-05-02T09:22:49;6.28;;;1.45;;
48667;SDS011;34453;52.198;5.004;2023-05-02T09:25:16;6.30;;;1.40;;
48667;SDS011;34453;52.198;5.004;2023-05-02T09:27:49;4.03;;;1.40;;
48667;SDS011;34453;52.198;5.004;2023-05-02T09:30:19;4.95;;;1.35;;
48667;SDS011;34453;52.198;5.004;2023-05-02T09:32:47;9.65;;;1.52;;
48667;SDS011;34453;52.198;5.004;2023-05-02T09:35:15;2.53;;;1.30;;
48667;SDS011;34453;52.198;5.004;2023-05-02T09:37:48;4.68;;;1.35;;
48667;SDS011;34453;52.198;5.004;2023-05-02T09:40:15;1.65;;;1.00;;
48667;SDS011;34453;52.198;5.004;2023-05-02T09:42:40;5.35;;;1.40;;
48667;SDS011;34453;52.198;5.004;2023-05-02T09:45:06;5.18;;;1.48;;
48667;SDS011;34453;52.198;5.004;2023-05-02T09:47:32;12.88;;;2.03;;
48667;SDS011;34453;52.198;5.004;2023-05-02T09:49:58;7.95;;;2.00;;
48667;SDS011;34453;52.198;5.004;2023-05-02T09:52:23;4.50;;;1.77;;
48667;SDS011;34453;52.198;5.004;2023-05-02T09:54:48;6.22;;;1.80;;
48667;SDS011;34453;52.198;5.004;2023-05-02T09:57:17;10.02;;;2.47;;
48667;SDS011;34453;52.198;5.004;2023-05-02T09:59:53;4.70;;;1.58;;
48667;SDS011;34453;52.198;5.004;2023-05-02T10:02:20;6.78;;;1.80;;
48667;SDS011;34453;52.198;5.004;2023-05-02T10:04:46;7.13;;;1.70;;
48667;SDS011;34453;52.198;5.004;2023-05-02T10:07:13;2.58;;;1.48;;
48667;SDS011;34453;52.198;5.004;2023-05-02T10:09:42;7.03;;;2.33;;
48667;SDS011;34453;52.198;5.004;2023-05-02T10:12:10;4.72;;;1.70;;
48667;SDS011;34453;52.198;5.004;2023-05-02T10:14:39;5.00;;;1.90;;
48667;SDS011;34453;52.198;5.004;2023-05-02T10:17:14;6.70;;;2.50;;
48667;SDS011;34453;52.198;5.004;2023-05-02T10:20:04;9.13;;;1.70;;
48667;SDS011;34453;52.198;5.004;2023-05-02T10:22:35;6.90;;;1.75;;
48667;SDS011;34453;52.198;5.004;2023-05-02T10:25:01;8.35;;;1.80;;
48667;SDS011;34453;52.198;5.004;2023-05-02T10:27:31;5.43;;;2.08;;
48667;SDS011;34453;52.198;5.004;2023-05-02T10:29:57;5.60;;;2.03;;
48667;SDS011;34453;52.198;5.004;2023-05-02T10:32:23;5.97;;;1.73;;
48667;SDS011;34453;52.198;5.004;2023-05-02T10:34:53;4.28;;;1.77;;
48667;SDS011;34453;52.198;5.004;2023-05-02T10:37:20;11.27;;;2.75;;
48667;SDS011;34453;52.198;5.004;2023-05-02T10:39:48;10.35;;;2.20;;
48667;SDS011;34453;52.198;5.004;2023-05-02T10:42:14;3.42;;;2.00;;
48667;SDS011;34453;52.198;5.004;2023-05-02T10:44:42;3.75;;;1.42;;
48667;SDS011;34453;52.198;5.004;2023-05-02T10:47:24;10.82;;;2.38;;
48667;SDS011;34453;52.198;5.004;2023-05-02T10:52:28;8.88;;;2.00;;
48667;SDS011;34453;52.198;5.004;2023-05-02T10:55:17;8.80;;;2.35;;
48667;SDS011;34453;52.198;5.004;2023-05-02T11:00:25;5.63;;;2.60;;
48667;SDS011;34453;52.198;5.004;2023-05-02T11:02:51;5.57;;;1.60;;
48667;SDS011;34453;52.198;5.004;2023-05-02T11:05:16;6.18;;;1.90;;
48667;SDS011;34453;52.198;5.004;2023-05-02T11:07:42;6.30;;;2.15;;
48667;SDS011;34453;52.198;5.004;2023-05-02T11:12:49;3.50;;;1.63;;
48667;SDS011;34453;52.198;5.004;2023-05-02T11:18:08;4.85;;;2.08;;
48667;SDS011;34453;52.198;5.004;2023-05-02T11:20:36;6.55;;;1.77;;
48667;SDS011;34453;52.198;5.004;2023-05-02T11:25:45;8.43;;;1.77;;
48667;SDS011;34453;52.198;5.004;2023-05-02T11:31:02;3.70;;;1.50;;
48667;SDS011;34453;52.198;5.004;2023-05-02T11:33:31;5.53;;;2.13;;
48667;SDS011;34453;52.198;5.004;2023-05-02T11:35:58;5.78;;;2.00;;
48667;SDS011;34453;52.198;5.004;2023-05-02T11:38:24;10.82;;;2.20;;
48667;SDS011;34453;52.198;5.004;2023-05-02T11:40:55;7.00;;;1.73;;
48667;SDS011;34453;52.198;5.004;2023-05-02T11:43:23;6.00;;;2.20;;
48667;SDS011;34453;52.198;5.004;2023-05-02T11:45:50;6.45;;;1.75;;
48667;SDS011;34453;52.198;5.004;2023-05-02T11:48:16;7.55;;;2.40;;
48667;SDS011;34453;52.198;5.004;2023-05-02T11:50:53;8.15;;;2.00;;
48667;SDS011;34453;52.198;5.004;2023-05-02T11:53:21;6.15;;;1.92;;
48667;SDS011;34453;52.198;5.004;2023-05-02T11:55:51;6.45;;;1.90;;
48667;SDS011;34453;52.198;5.004;2023-05-02T11:58:19;4.47;;;1.95;;
48667;SDS011;34453;52.198;5.004;2023-05-02T12:00:46;7.95;;;2.15;;
48667;SDS011;34453;52.198;5.004;2023-05-02T12:05:54;5.57;;;2.50;;
48667;SDS011;34453;52.198;5.004;2023-05-02T12:08:25;8.27;;;2.20;;
48667;SDS011;34453;52.198;5.004;2023-05-02T12:10:52;7.20;;;2.38;;
48667;SDS011;34453;52.198;5.004;2023-05-02T12:13:24;13.23;;;3.17;;
48667;SDS011;34453;52.198;5.004;2023-05-02T12:15:51;8.23;;;2.88;;
48667;SDS011;34453;52.198;5.004;2023-05-02T12:18:19;10.00;;;2.20;;
48667;SDS011;34453;52.198;5.004;2023-05-02T12:20:48;8.50;;;3.30;;
48667;SDS011;34453;52.198;5.004;2023-05-02T12:23:15;4.65;;;2.95;;
48667;SDS011;34453;52.198;5.004;2023-05-02T12:25:41;10.35;;;2.38;;
48667;SDS011;34453;52.198;5.004;2023-05-02T12:28:07;4.28;;;2.38;;
48667;SDS011;34453;52.198;5.004;2023-05-02T12:30:34;7.38;;;2.50;;
48667;SDS011;34453;52.198;5.004;2023-05-02T12:33:02;8.07;;;2.22;;
48667;SDS011;34453;52.198;5.004;2023-05-02T12:35:29;9.55;;;2.38;;
48667;SDS011;34453;52.198;5.004;2023-05-02T12:40:47;13.02;;;2.80;;
48667;SDS011;34453;52.198;5.004;2023-05-02T12:43:16;10.27;;;2.53;;
48667;SDS011;34453;52.198;5.004;2023-05-02T12:45:42;4.47;;;2.20;;
48667;SDS011;34453;52.198;5.004;2023-05-02T12:48:18;8.23;;;2.38;;
48667;SDS011;34453;52.198;5.004;2023-05-02T12:50:43;12.15;;;2.70;;
48667;SDS011;34453;52.198;5.004;2023-05-02T12:53:09;8.27;;;1.95;;
48667;SDS011;34453;52.198;5.004;2023-05-02T12:55:34;5.97;;;2.28;;
48667;SDS011;34453;52.198;5.004;2023-05-02T12:58:01;7.10;;;2.75;;
48667;SDS011;34453;52.198;5.004;2023-05-02T13:00:27;7.55;;;2.42;;
48667;SDS011;34453;52.198;5.004;2023-05-02T13:02:53;11.85;;;2.90;;
48667;SDS011;34453;52.198;5.004;2023-05-02T13:05:19;8.52;;;2.30;;
48667;SDS011;34453;52.198;5.004;2023-05-02T13:07:45;13.75;;;2.90;;
48667;SDS011;34453;52.198;5.004;2023-05-02T13:10:11;8.48;;;3.15;;
48667;SDS011;34453;52.198;5.004;2023-05-02T13:12:37;4.68;;;2.03;;
48667;SDS011;34453;52.198;5.004;2023-05-02T13:15:03;6.28;;;1.88;;
48667;SDS011;34453;52.198;5.004;2023-05-02T13:17:30;7.57;;;3.08;;
48667;SDS011;34453;52.198;5.004;2023-05-02T13:19:56;9.30;;;1.95;;
48667;SDS011;34453;52.198;5.004;2023-05-02T13:22:22;5.85;;;2.47;;
48667;SDS011;34453;52.198;5.004;2023-05-02T13:24:48;8.13;;;2.45;;
48667;SDS011;34453;52.198;5.004;2023-05-02T13:27:13;11.88;;;3.20;;
48667;SDS011;34453;52.198;5.004;2023-05-02T13:29:39;6.95;;;2.35;;
48667;SDS011;34453;52.198;5.004;2023-05-02T13:32:04;6.30;;;2.80;;
48667;SDS011;34453;52.198;5.004;2023-05-02T13:34:30;5.72;;;2.08;;
48667;SDS011;34453;52.198;5.004;2023-05-02T13:36:55;6.68;;;2.35;;
48667;SDS011;34453;52.198;5.004;2023-05-02T13:39:21;4.28;;;1.45;;
48667;SDS011;34453;52.198;5.004;2023-05-02T13:41:46;6.38;;;2.08;;
48667;SDS011;34453;52.198;5.004;2023-05-02T13:44:12;4.43;;;1.75;;
48667;SDS011;34453;52.198;5.004;2023-05-02T13:46:37;6.28;;;2.33;;
48667;SDS011;34453;52.198;5.004;2023-05-02T13:49:03;8.15;;;2.40;;
48667;SDS011;34453;52.198;5.004;2023-05-02T13:51:29;5.25;;;2.05;;
48667;SDS011;34453;52.198;5.004;2023-05-02T13:53:57;4.93;;;2.30;;
48667;SDS011;34453;52.198;5.004;2023-05-02T13:56:23;8.68;;;2.15;;
48667;SDS011;34453;52.198;5.004;2023-05-02T13:58:50;11.65;;;2.28;;
48667;SDS011;34453;52.198;5.004;2023-05-02T14:04:37;7.40;;;1.65;;
48667;SDS011;34453;52.198;5.004;2023-05-02T14:07:03;2.42;;;1.52;;
48667;SDS011;34453;52.198;5.004;2023-05-02T14:09:29;7.25;;;1.88;;
48667;SDS011;34453;52.198;5.004;2023-05-02T14:11:54;5.78;;;1.98;;
48667;SDS011;34453;52.198;5.004;2023-05-02T14:14:20;9.07;;;2.40;;
48667;SDS011;34453;52.198;5.004;2023-05-02T14:16:45;3.60;;;2.40;;
48667;SDS011;34453;52.198;5.004;2023-05-02T14:19:11;7.25;;;2.33;;
48667;SDS011;34453;52.198;5.004;2023-05-02T14:21:36;9.20;;;2.22;;
48667;SDS011;34453;52.198;5.004;2023-05-02T14:24:05;8.45;;;1.88;;
48667;SDS011;34453;52.198;5.004;2023-05-02T14:26:30;2.88;;;1.77;;
48667;SDS011;34453;52.198;5.004;2023-05-02T14:28:56;4.10;;;1.92;;
48667;SDS011;34453;52.198;5.004;2023-05-02T14:31:22;4.28;;;2.22;;
48667;SDS011;34453;52.198;5.004;2023-05-02T14:33:48;7.53;;;2.30;;
48667;SDS011;34453;52.198;5.004;2023-05-02T14:39:03;4.10;;;1.75;;
48667;SDS011;34453;52.198;5.004;2023-05-02T14:41:29;6.10;;;1.67;;
48667;SDS011;34453;52.198;5.004;2023-05-02T14:43:54;3.35;;;1.95;;
48667;SDS011;34453;52.198;5.004;2023-05-02T14:46:20;8.90;;;2.00;;
48667;SDS011;34453;52.198;5.004;2023-05-02T14:48:46;5.10;;;1.77;;
48667;SDS011;34453;52.198;5.004;2023-05-02T14:51:11;2.80;;;1.70;;
48667;SDS011;34453;52.198;5.004;2023-05-02T14:53:37;6.78;;;1.90;;
48667;SDS011;34453;52.198;5.004;2023-05-02T14:56:03;2.83;;;1.50;;
48667;SDS011;34453;52.198;5.004;2023-05-02T14:58:29;7.15;;;1.77;;
48667;SDS011;34453;52.198;5.004;2023-05-02T15:00:54;9.10;;;1.63;;
48667;SDS011;34453;52.198;5.004;2023-05-02T15:03:20;3.08;;;2.40;;
48667;SDS011;34453;52.198;5.004;2023-05-02T15:05:45;8.93;;;1.73;;
48667;SDS011;34453;52.198;5.004;2023-05-02T15:08:12;4.57;;;1.17;;
48667;SDS011;34453;52.198;5.004;2023-05-02T15:10:38;4.45;;;1.60;;
48667;SDS011;34453;52.198;5.004;2023-05-02T15:13:04;3.03;;;2.42;;
48667;SDS011;34453;52.198;5.004;2023-05-02T15:15:31;3.95;;;2.22;;
48667;SDS011;34453;52.198;5.004;2023-05-02T15:17:58;6.85;;;1.85;;
48667;SDS011;34453;52.198;5.004;2023-05-02T15:20:25;7.68;;;2.08;;
48667;SDS011;34453;52.198;5.004;2023-05-02T15:22:52;1.73;;;1.63;;
48667;SDS011;34453;52.198;5.004;2023-05-02T15:25:27;3.92;;;1.63;;
48667;SDS011;34453;52.198;5.004;2023-05-02T15:27:53;7.55;;;1.70;;